Time;durP1;ratioP1;P1;durP2;ratioP2;P2;SDS_P1;SDS_P2;PMS_P1;PMS_P2;Temp;Humidity;BMP_temperature;BMP_pressure;BME280_temperature;BME280_humidity;BME280_pressure;Samples;Min_cycle;Max_cycle;Signal;HPM_P1;HPM_P2
2022/05/06 00:00:27;;;;;;;10.40;4.70;;;11.00;99.90;;;;;;5030299;28;20117;-59
2022/05/06 00:02:55;;;;;;;10.80;5.07;;;11.10;99.90;;;;;;5028095;28;20054;-60
2022/05/06 00:05:23;;;;;;;8.05;4.05;;;11.10;99.90;;;;;;5031075;28;20132;-59
2022/05/06 00:07:50;;;;;;;9.18;3.53;;;11.20;99.90;;;;;;5026117;28;20053;-60
2022/05/06 00:10:18;;;;;;;10.23;4.38;;;11.20;99.90;;;;;;5030069;28;20041;-60
2022/05/06 00:12:46;;;;;;;9.45;3.78;;;11.30;99.90;;;;;;5029903;28;20060;-60
2022/05/06 00:15:14;;;;;;;8.35;3.40;;;11.40;99.90;;;;;;5030856;28;20057;-61
2022/05/06 00:17:41;;;;;;;6.70;4.10;;;11.40;99.90;;;;;;5032767;28;20060;-60
2022/05/06 00:20:10;;;;;;;8.00;3.55;;;11.50;99.90;;;;;;5029366;28;20045;-64
2022/05/06 00:22:38;;;;;;;6.35;3.17;;;11.50;99.90;;;;;;5057718;28;20080;-60
2022/05/06 00:25:05;;;;;;;9.68;4.20;;;11.60;99.90;;;;;;5031437;28;20042;-62
2022/05/06 00:27:33;;;;;;;5.85;3.08;;;11.60;99.90;;;;;;5029446;28;20049;-59
2022/05/06 00:30:01;;;;;;;12.98;3.63;;;11.70;99.90;;;;;;5031105;28;20056;-59
2022/05/06 00:32:29;;;;;;;6.53;3.30;;;11.80;99.90;;;;;;5027492;28;20057;-60
2022/05/06 00:34:57;;;;;;;7.57;3.83;;;11.80;99.90;;;;;;5028587;28;20044;-60
2022/05/06 00:37:25;;;;;;;8.30;3.97;;;11.80;99.90;;;;;;5020987;28;20038;-60
2022/05/06 00:39:53;;;;;;;8.82;4.40;;;11.90;99.90;;;;;;5030574;28;20049;-61
2022/05/06 00:42:21;;;;;;;6.78;3.45;;;11.90;99.90;;;;;;5031327;28;20041;-62
2022/05/06 00:44:49;;;;;;;9.60;3.70;;;11.90;99.90;;;;;;5030881;28;20056;-60
2022/05/06 00:47:22;;;;;;;8.52;3.95;;;11.90;99.90;;;;;;5027676;28;20052;-63
2022/05/06 00:49:52;;;;;;;10.18;4.05;;;11.90;99.90;;;;;;5028260;28;20042;-62
2022/05/06 00:52:20;;;;;;;12.75;4.10;;;11.90;99.90;;;;;;5025074;28;20048;-61
2022/05/06 00:54:51;;;;;;;10.15;3.75;;;11.90;99.90;;;;;;5060573;28;20045;-65
2022/05/06 00:57:20;;;;;;;7.82;3.60;;;12.00;99.90;;;;;;5028510;28;20489;-61
2022/05/06 01:02:34;;;;;;;9.40;4.53;;;12.00;99.90;;;;;;5025642;28;20052;-60
2022/05/06 01:05:05;;;;;;;9.18;4.40;;;12.00;99.90;;;;;;5025960;28;20045;-61
2022/05/06 01:07:32;;;;;;;11.23;5.13;;;12.00;99.90;;;;;;5019203;28;20236;-60
2022/05/06 01:10:00;;;;;;;8.13;3.60;;;12.00;99.90;;;;;;5029009;28;20052;-59
2022/05/06 01:12:30;;;;;;;;;;;12.00;99.90;;;;;;5061863;28;20065;-61
2022/05/06 01:14:59;;;;;;;6.25;3.10;;;12.00;99.90;;;;;;5030466;28;19921;-61
2022/05/06 01:17:35;;;;;;;5.88;2.78;;;12.00;99.90;;;;;;5028429;28;20528;-60
2022/05/06 01:20:03;;;;;;;4.85;2.70;;;12.00;99.90;;;;;;5027457;28;20414;-61
2022/05/06 01:22:31;;;;;;;5.97;2.88;;;12.00;99.90;;;;;;5030192;28;20049;-60
2022/05/06 01:25:01;;;;;;;5.95;2.90;;;12.00;99.90;;;;;;5030588;28;20049;-62
2022/05/06 01:27:35;;;;;;;6.88;2.90;;;12.10;99.90;;;;;;5028324;28;20041;-60
2022/05/06 01:30:04;;;;;;;7.70;2.88;;;12.10;99.90;;;;;;5026992;28;20053;-61
2022/05/06 01:32:32;;;;;;;7.67;3.23;;;12.00;99.90;;;;;;5010228;28;20417;-63
2022/05/06 01:35:03;;;;;;;7.82;2.65;;;12.10;99.90;;;;;;5057889;28;20309;-60
2022/05/06 01:37:35;;;;;;;6.57;2.92;;;12.00;99.90;;;;;;5029747;28;20823;-64
2022/05/06 01:40:04;;;;;;;6.07;2.65;;;12.00;99.90;;;;;;5062691;28;20045;-63
2022/05/06 01:42:38;;;;;;;5.03;2.25;;;12.00;99.90;;;;;;5031030;28;20046;-61
2022/05/06 01:45:10;;;;;;;5.97;2.88;;;12.10;99.90;;;;;;5028335;28;20064;-61
2022/05/06 01:47:42;;;;;;;9.43;3.25;;;12.00;99.90;;;;;;5018453;28;20041;-61
2022/05/06 01:50:15;;;;;;;7.60;2.70;;;12.00;99.90;;;;;;5028981;28;20041;-64
2022/05/06 01:52:45;;;;;;;6.65;2.80;;;12.00;99.90;;;;;;5029365;28;20046;-61
2022/05/06 01:55:15;;;;;;;6.18;2.80;;;12.00;99.90;;;;;;5044501;28;20513;-62
2022/05/06 01:57:55;;;;;;;6.00;3.53;;;11.90;99.90;;;;;;5062237;28;20477;-63
2022/05/06 02:00:25;;;;;;;8.73;3.55;;;11.90;99.90;;;;;;5029774;28;20045;-63
2022/05/06 02:02:56;;;;;;;10.00;4.20;;;11.90;99.90;;;;;;5028986;28;20033;-58
2022/05/06 02:05:34;;;;;;;9.02;3.60;;;11.90;99.90;;;;;;5028685;28;20056;-59
2022/05/06 02:08:02;;;;;;;8.38;3.72;;;11.80;99.90;;;;;;5028028;28;20053;-59
2022/05/06 02:10:32;;;;;;;9.47;4.13;;;11.80;99.90;;;;;;5027581;28;20041;-59
2022/05/06 02:13:05;;;;;;;11.40;4.28;;;11.80;99.90;;;;;;5026240;28;20302;-58
2022/05/06 02:15:51;;;;;;;8.35;2.95;;;11.70;99.90;;;;;;5029465;28;20063;-59
2022/05/06 02:18:48;;;;;;;7.85;4.90;;;11.70;99.90;;;;;;5031827;28;20056;-58
2022/05/06 02:21:39;;;;;;;8.20;3.28;;;11.60;99.90;;;;;;5028355;28;20381;-59
2022/05/06 02:24:16;;;;;;;10.57;4.03;;;11.60;99.90;;;;;;5029454;28;20113;-59
2022/05/06 02:27:12;;;;;;;10.05;4.20;;;11.60;99.90;;;;;;5028111;28;20057;-59
2022/05/06 02:33:12;;;;;;;9.32;4.07;;;11.50;99.90;;;;;;5029429;28;20052;-59
2022/05/06 02:35:23;;;;;;;6.22;3.88;;;11.60;99.90;;;;;;5029941;28;20048;-59
2022/05/06 02:37:52;;;;;;;10.23;4.30;;;11.50;99.90;;;;;;5028453;28;20060;-59
2022/05/06 02:40:21;;;;;;;13.85;4.90;;;11.50;99.90;;;;;;5028423;28;20049;-59
2022/05/06 02:42:50;;;;;;;13.23;4.30;;;11.50;99.90;;;;;;5028771;28;20049;-58
2022/05/06 02:45:18;;;;;;;12.38;4.60;;;11.50;99.90;;;;;;5029671;28;20044;-59
2022/05/06 02:47:46;;;;;;;14.32;5.40;;;11.50;99.90;;;;;;5029829;28;20042;-59
2022/05/06 02:50:14;;;;;;;7.47;4.20;;;11.50;99.90;;;;;;5027089;28;20096;-59
2022/05/06 02:52:42;;;;;;;8.70;4.60;;;11.40;99.90;;;;;;5046953;28;20050;-60
2022/05/06 02:55:10;;;;;;;12.07;4.75;;;11.50;99.90;;;;;;5028876;28;20045;-59
2022/05/06 02:57:38;;;;;;;12.32;4.82;;;11.40;99.90;;;;;;5020460;28;20065;-58
2022/05/06 03:00:06;;;;;;;13.07;5.13;;;11.40;99.90;;;;;;5020032;28;20053;-58
2022/05/06 03:02:35;;;;;;;16.20;5.57;;;11.30;99.90;;;;;;5029901;28;20057;-59
2022/05/06 03:05:08;;;;;;;12.48;4.55;;;11.30;99.90;;;;;;5028598;28;20049;-59
2022/05/06 03:07:36;;;;;;;11.50;5.07;;;11.30;99.90;;;;;;5044998;28;20046;-59
2022/05/06 03:10:06;;;;;;;10.88;5.53;;;11.20;99.90;;;;;;5027578;28;20045;-59
2022/05/06 03:12:37;;;;;;;11.27;5.50;;;11.30;99.90;;;;;;5028853;28;20478;-60
2022/05/06 03:15:11;;;;;;;9.75;5.68;;;11.30;99.90;;;;;;5063019;28;20052;-59
2022/05/06 03:17:47;;;;;;;15.85;5.15;;;11.30;99.90;;;;;;5063877;28;20052;-59
2022/05/06 03:20:15;;;;;;;9.50;4.68;;;11.30;99.90;;;;;;5031679;28;20056;-59
2022/05/06 03:22:50;;;;;;;14.65;5.25;;;11.30;99.90;;;;;;5018744;28;20041;-59
2022/05/06 03:25:17;;;;;;;9.98;5.05;;;11.20;99.90;;;;;;5033148;28;20041;-61
2022/05/06 03:28:02;;;;;;;13.88;5.22;;;11.20;99.90;;;;;;5033162;28;20103;-60
2022/05/06 03:30:37;;;;;;;10.73;5.32;;;11.20;99.90;;;;;;5033214;28;20053;-60
2022/05/06 03:33:17;;;;;;;16.33;6.38;;;11.20;99.90;;;;;;5050851;28;20046;-60
2022/05/06 03:35:46;;;;;;;14.63;5.90;;;11.20;99.90;;;;;;5031757;28;20067;-59
2022/05/06 03:38:15;;;;;;;10.20;5.50;;;11.20;99.90;;;;;;5033016;28;20037;-60
2022/05/06 03:40:46;;;;;;;11.18;5.15;;;11.20;99.90;;;;;;5031640;28;20382;-60
2022/05/06 03:43:14;;;;;;;13.75;5.70;;;11.20;99.90;;;;;;5032252;28;20041;-60
2022/05/06 03:45:42;;;;;;;12.50;6.32;;;11.20;99.90;;;;;;5033041;28;20053;-60
2022/05/06 03:48:10;;;;;;;12.73;5.75;;;11.20;99.90;;;;;;5031243;28;20045;-61
2022/05/06 03:53:32;;;;;;;13.23;5.40;;;11.10;99.90;;;;;;5031771;28;20048;-62
2022/05/06 03:56:00;;;;;;;10.75;5.63;;;11.20;99.90;;;;;;5032785;28;20485;-60
2022/05/06 03:58:33;;;;;;;11.30;6.60;;;11.10;99.90;;;;;;5004637;28;20050;-59
2022/05/06 04:01:07;;;;;;;15.35;6.00;;;11.10;99.90;;;;;;5027826;28;20045;-59
2022/05/06 04:03:38;;;;;;;13.32;6.25;;;11.10;99.90;;;;;;5032659;28;20480;-63
2022/05/06 04:06:06;;;;;;;16.60;6.50;;;11.10;99.90;;;;;;5033763;28;20049;-63
2022/05/06 04:08:34;;;;;;;10.43;5.75;;;11.20;99.90;;;;;;5031519;28;20046;-60
2022/05/06 04:11:04;;;;;;;15.27;6.28;;;11.10;99.90;;;;;;5015175;28;20042;-62
2022/05/06 04:13:34;;;;;;;11.90;6.35;;;11.10;99.90;;;;;;5064486;28;20053;-61
2022/05/06 04:16:02;;;;;;;13.50;6.10;;;11.10;99.90;;;;;;5032421;28;20614;-61
2022/05/06 04:18:31;;;;;;;10.10;5.57;;;11.10;99.90;;;;;;5032220;28;20615;-60
2022/05/06 04:23:45;;;;;;;12.23;5.72;;;11.00;99.90;;;;;;5044534;28;20489;-61
2022/05/06 04:26:15;;;;;;;;;;;11.00;99.90;;;;;;5022763;28;20042;-62
2022/05/06 04:28:53;;;;;;;11.15;5.18;;;10.90;99.90;;;;;;5030622;28;19921;-62
2022/05/06 04:31:22;;;;;;;19.88;6.55;;;10.90;99.90;;;;;;5030073;28;20485;-61
2022/05/06 04:33:53;;;;;;;10.23;5.35;;;10.80;99.90;;;;;;5031838;28;20057;-60
2022/05/06 04:36:26;;;;;;;12.63;5.38;;;10.70;99.90;;;;;;5063183;28;20049;-60
2022/05/06 04:38:58;;;;;;;13.45;6.20;;;10.70;99.90;;;;;;5031809;28;20045;-62
2022/05/06 04:41:28;;;;;;;14.77;6.28;;;10.70;99.90;;;;;;5030787;28;20041;-61
2022/05/06 04:43:56;;;;;;;13.30;5.78;;;10.60;99.90;;;;;;5014507;28;20041;-59
2022/05/06 04:46:28;;;;;;;14.43;6.60;;;10.60;99.90;;;;;;5030845;28;20056;-59
2022/05/06 04:48:56;;;;;;;12.23;6.13;;;10.60;99.90;;;;;;5010495;28;20045;-59
2022/05/06 04:51:24;;;;;;;15.07;5.95;;;10.70;99.90;;;;;;5008528;28;20042;-61
2022/05/06 04:53:55;;;;;;;11.50;6.05;;;10.60;99.90;;;;;;5019385;28;20429;-59
2022/05/06 04:56:23;;;;;;;15.00;6.57;;;10.60;99.90;;;;;;5050576;28;20045;-59
2022/05/06 04:58:55;;;;;;;12.13;5.90;;;10.60;99.90;;;;;;5022496;28;20049;-59
2022/05/06 05:01:34;;;;;;;11.88;6.20;;;10.60;99.90;;;;;;5025368;28;20057;-61
2022/05/06 05:04:02;;;;;;;15.95;6.07;;;10.60;99.90;;;;;;5007151;28;20050;-60
2022/05/06 05:06:35;;;;;;;10.55;5.13;;;10.60;99.90;;;;;;5011158;28;20046;-61
2022/05/06 05:09:07;;;;;;;13.77;6.00;;;10.60;99.90;;;;;;5025891;28;20476;-61
2022/05/06 05:11:37;;;;;;;12.02;5.95;;;10.60;99.90;;;;;;5025986;28;20046;-59
2022/05/06 05:14:11;;;;;;;13.48;6.38;;;10.60;99.90;;;;;;5028537;28;20053;-59
2022/05/06 05:16:40;;;;;;;11.82;6.10;;;10.60;99.90;;;;;;5028893;28;20066;-62
2022/05/06 05:19:08;;;;;;;12.45;6.00;;;10.60;99.90;;;;;;5057487;28;20373;-61
2022/05/06 05:21:43;;;;;;;16.40;6.78;;;10.70;99.90;;;;;;5027965;28;20042;-60
2022/05/06 05:24:11;;;;;;;11.93;6.13;;;10.70;99.90;;;;;;5009590;28;20042;-59
2022/05/06 05:26:40;;;;;;;11.57;6.10;;;10.70;99.90;;;;;;5015512;28;20500;-59
2022/05/06 05:29:07;;;;;;;13.73;6.30;;;10.70;99.90;;;;;;5057848;28;20038;-59
2022/05/06 05:31:35;;;;;;;12.88;6.32;;;10.70;99.90;;;;;;5024745;28;20053;-58
2022/05/06 05:34:03;;;;;;;12.00;6.70;;;10.70;99.90;;;;;;5010859;28;20045;-59
2022/05/06 05:36:31;;;;;;;15.35;6.18;;;10.80;99.90;;;;;;5007378;28;20060;-58
2022/05/06 05:38:58;;;;;;;14.45;6.28;;;10.80;99.90;;;;;;5053786;28;20045;-59
2022/05/06 05:41:28;;;;;;;15.93;6.28;;;10.90;99.90;;;;;;5055920;28;20493;-59
2022/05/06 05:49:35;;;;;;;13.88;6.05;;;11.00;99.90;;;;;;5032428;28;20042;-59
2022/05/06 05:52:03;;;;;;;10.88;5.93;;;11.00;99.90;;;;;;5023686;28;20049;-58
2022/05/06 05:54:32;;;;;;;16.27;6.38;;;11.00;99.90;;;;;;5021029;28;20045;-59
2022/05/06 05:57:00;;;;;;;15.10;6.25;;;11.00;99.90;;;;;;5026251;28;20205;-61
2022/05/06 05:59:33;;;;;;;13.07;6.60;;;11.10;99.90;;;;;;5010442;28;20493;-60
2022/05/06 06:02:02;;;;;;;15.02;5.65;;;11.00;99.90;;;;;;5022157;28;20049;-59
2022/05/06 06:04:30;;;;;;;12.93;6.15;;;11.10;99.90;;;;;;4993025;28;20053;-59
2022/05/06 06:06:59;;;;;;;15.30;7.47;;;11.00;99.90;;;;;;5002941;28;20060;-59
2022/05/06 06:09:28;;;;;;;13.57;6.30;;;11.00;99.90;;;;;;5026651;28;20306;-59
2022/05/06 06:12:02;;;;;;;10.70;6.32;;;11.00;99.90;;;;;;5010751;28;20045;-59
2022/05/06 06:14:31;;;;;;;15.45;6.93;;;11.10;99.90;;;;;;5027964;28;20041;-59
2022/05/06 06:16:58;;;;;;;14.23;6.38;;;11.10;99.90;;;;;;5025826;28;20042;-60
2022/05/06 06:19:33;;;;;;;12.43;6.28;;;11.10;99.90;;;;;;5060967;28;20049;-59
2022/05/06 06:22:00;;;;;;;17.08;7.18;;;11.10;99.90;;;;;;5025370;28;20049;-59
2022/05/06 06:24:40;;;;;;;17.17;7.70;;;11.10;99.90;;;;;;5018442;28;20397;-59
2022/05/06 06:27:08;;;;;;;10.63;5.65;;;11.10;99.90;;;;;;5025632;28;20053;-59
2022/05/06 06:29:36;;;;;;;12.52;5.22;;;11.20;99.90;;;;;;5011687;28;20045;-59
2022/05/06 06:32:06;;;;;;;11.87;5.53;;;11.20;99.90;;;;;;5025382;28;20056;-60
2022/05/06 06:34:34;;;;;;;11.20;4.30;;;11.20;99.90;;;;;;5026137;28;20325;-59
2022/05/06 06:37:02;;;;;;;8.50;4.70;;;11.40;99.90;;;;;;5041992;28;20037;-61
2022/05/06 06:39:31;;;;;;;10.35;4.38;;;11.40;99.90;;;;;;5026233;28;20049;-61
2022/05/06 06:41:59;;;;;;;8.25;3.85;;;11.50;99.90;;;;;;5040560;28;20049;-63
2022/05/06 06:44:38;;;;;;;7.75;4.63;;;11.70;99.90;;;;;;5025193;28;20033;-62
2022/05/06 06:47:29;;;;;;;9.60;4.35;;;11.70;99.90;;;;;;5034427;28;20065;-60
2022/05/06 06:50:15;;;;;;;7.28;4.10;;;11.80;99.90;;;;;;4999841;28;20481;-62
2022/05/06 06:52:56;;;;;;;10.70;4.82;;;11.90;99.90;;;;;;5038536;28;20041;-59
2022/05/06 06:55:29;;;;;;;10.30;4.13;;;12.00;99.90;;;;;;5024818;28;20049;-59
2022/05/06 06:57:56;;;;;;;8.23;4.05;;;12.10;99.90;;;;;;5027776;28;20041;-61
2022/05/06 07:00:24;;;;;;;9.00;3.95;;;12.20;99.90;;;;;;5030949;28;20397;-61
2022/05/06 07:02:55;;;;;;;7.50;4.45;;;12.30;99.90;;;;;;5023637;28;20041;-61
2022/05/06 07:05:23;;;;;;;12.18;4.38;;;12.30;99.90;;;;;;5027399;28;20489;-63
2022/05/06 07:13:43;;;;;;;9.32;3.63;;;12.50;99.90;;;;;;5037012;28;20406;-59
2022/05/06 07:16:11;;;;;;;8.10;3.83;;;12.50;99.90;;;;;;5030605;28;20056;-59
2022/05/06 07:18:39;;;;;;;8.25;3.75;;;12.50;99.90;;;;;;5034117;28;20492;-59
2022/05/06 07:21:07;;;;;;;9.63;3.90;;;12.50;99.90;;;;;;5034733;28;20034;-59
2022/05/06 07:23:34;;;;;;;8.20;4.72;;;12.60;99.90;;;;;;5024817;28;20393;-61
2022/05/06 07:26:02;;;;;;;11.13;3.30;;;12.60;99.90;;;;;;5028007;28;20519;-59
2022/05/06 07:28:30;;;;;;;7.60;4.55;;;12.70;99.90;;;;;;5027382;28;20053;-59
2022/05/06 07:30:57;;;;;;;9.45;4.40;;;12.70;99.90;;;;;;5023672;28;20051;-59
2022/05/06 07:33:25;;;;;;;6.75;3.63;;;12.80;99.90;;;;;;5024713;28;20038;-59
2022/05/06 07:35:53;;;;;;;7.88;3.80;;;12.90;99.90;;;;;;5021141;28;20049;-59
2022/05/06 07:38:21;;;;;;;7.97;4.20;;;12.90;99.90;;;;;;5021370;28;20469;-59
2022/05/06 07:40:49;;;;;;;8.15;3.17;;;13.00;99.90;;;;;;5032902;28;20049;-60
2022/05/06 07:43:16;;;;;;;5.20;2.90;;;13.00;99.90;;;;;;5029424;28;20045;-60
2022/05/06 07:45:44;;;;;;;10.32;4.10;;;13.10;99.90;;;;;;4995237;28;20042;-62
2022/05/06 07:48:13;;;;;;;7.53;3.75;;;13.10;99.90;;;;;;5020899;28;20395;-60
2022/05/06 07:50:44;;;;;;;6.70;3.08;;;13.10;99.90;;;;;;5031975;28;20050;-62
2022/05/06 07:53:13;;;;;;;11.88;3.85;;;13.20;99.90;;;;;;5031403;28;20481;-64
2022/05/06 07:55:48;;;;;;;4.13;2.78;;;13.30;99.90;;;;;;5031090;28;20038;-60
2022/05/06 07:58:16;;;;;;;4.47;3.13;;;13.30;99.90;;;;;;5023147;28;20041;-62
2022/05/06 08:00:44;;;;;;;6.15;3.10;;;13.40;99.90;;;;;;5028140;28;20045;-62
2022/05/06 08:05:59;;;;;;;7.93;3.08;;;13.40;99.90;;;;;;5032112;28;20045;-59
2022/05/06 08:08:27;;;;;;;6.45;3.13;;;13.50;99.90;;;;;;5029702;28;20080;-60
2022/05/06 08:10:54;;;;;;;9.07;3.58;;;13.50;99.90;;;;;;5032092;28;20064;-60
2022/05/06 08:13:22;;;;;;;6.05;2.85;;;13.50;99.90;;;;;;5031684;28;20201;-60
2022/05/06 08:15:51;;;;;;;4.25;2.75;;;13.50;99.90;;;;;;5027251;28;20497;-60
2022/05/06 08:18:19;;;;;;;6.75;3.05;;;13.80;99.90;;;;;;5028938;28;20140;-60
2022/05/06 08:20:47;;;;;;;19.80;3.58;;;13.60;99.90;;;;;;5027952;28;20033;-60
2022/05/06 08:23:14;;;;;;;8.70;2.58;;;13.70;99.90;;;;;;5051441;28;20060;-65
2022/05/06 08:25:42;;;;;;;6.03;2.60;;;13.80;99.90;;;;;;5029287;28;20049;-63
2022/05/06 08:28:13;;;;;;;7.47;2.75;;;13.90;99.90;;;;;;5027490;28;20045;-65
2022/05/06 08:30:41;;;;;;;3.90;2.20;;;13.90;99.90;;;;;;5026241;28;20038;-64
2022/05/06 08:33:09;;;;;;;5.47;2.75;;;14.00;99.90;;;;;;5023241;28;20057;-60
2022/05/06 08:35:37;;;;;;;5.15;3.08;;;14.10;99.90;;;;;;5028723;28;20057;-62
2022/05/06 08:38:05;;;;;;;6.90;2.58;;;14.10;99.90;;;;;;5032059;28;20401;-59
2022/05/06 08:40:35;;;;;;;4.35;2.40;;;14.10;99.90;;;;;;5029596;28;20405;-60
2022/05/06 08:43:04;;;;;;;10.23;2.80;;;14.20;99.90;;;;;;5029681;28;20058;-59
2022/05/06 08:51:05;;;;;;;7.13;2.88;;;14.30;99.90;;;;;;5023697;28;20434;-60
2022/05/06 08:53:35;;;;;;;4.53;2.75;;;14.30;99.90;;;;;;5026315;28;20056;-60
2022/05/06 08:56:03;;;;;;;4.25;2.97;;;14.30;99.90;;;;;;5025439;28;20049;-61
2022/05/06 08:58:36;;;;;;;8.80;2.58;;;14.40;99.90;;;;;;5030971;28;20041;-60
2022/05/06 09:01:06;;;;;;;4.20;2.58;;;14.40;99.90;;;;;;5027080;28;20049;-63
2022/05/06 09:03:43;;;;;;;7.30;3.00;;;14.60;99.90;;;;;;5028087;28;20080;-61
2022/05/06 09:06:29;;;;;;;8.02;2.75;;;14.70;99.90;;;;;;5031512;28;20408;-63
2022/05/06 09:08:58;;;;;;;6.07;2.25;;;14.70;99.90;;;;;;5020954;28;20054;-62
2022/05/06 09:14:16;;;;;;;6.47;2.28;;;14.70;99.90;;;;;;5030529;28;20056;-61
2022/05/06 09:16:46;;;;;;;7.13;2.50;;;14.80;99.90;;;;;;5027448;28;20050;-62
2022/05/06 09:19:21;;;;;;;6.38;2.40;;;14.90;99.90;;;;;;5028689;28;20045;-61
2022/05/06 09:22:03;;;;;;;4.75;3.28;;;15.00;99.90;;;;;;5024518;28;20053;-61
2022/05/06 09:24:34;;;;;;;7.78;2.50;;;15.10;99.90;;;;;;5020754;28;20052;-65
2022/05/06 09:27:08;;;;;;;8.10;2.42;;;15.20;99.90;;;;;;5032326;28;20378;-63
2022/05/06 09:29:41;;;;;;;4.80;2.10;;;15.30;99.90;;;;;;5033090;28;20033;-63
2022/05/06 09:32:25;;;;;;;6.85;2.75;;;15.40;99.90;;;;;;5019495;28;20052;-61
2022/05/06 09:34:56;;;;;;;3.40;1.70;;;15.50;99.90;;;;;;5030357;28;20053;-64
2022/05/06 09:37:34;;;;;;;8.38;2.60;;;15.40;99.90;;;;;;5026680;28;20040;-66
2022/05/06 09:40:16;;;;;;;3.63;2.03;;;15.40;99.90;;;;;;5028364;28;20414;-65
2022/05/06 09:42:53;;;;;;;6.53;2.50;;;15.40;99.90;;;;;;5037534;28;20048;-62
2022/05/06 09:45:39;;;;;;;6.45;1.70;;;15.40;99.90;;;;;;5027940;28;20064;-61
2022/05/06 09:48:13;;;;;;;6.50;2.58;;;15.50;99.90;;;;;;5029939;28;20053;-61
2022/05/06 09:50:45;;;;;;;10.10;1.92;;;15.50;99.90;;;;;;5027663;28;20041;-61
2022/05/06 09:53:19;;;;;;;4.68;1.83;;;15.60;99.90;;;;;;5026512;28;20548;-61
2022/05/06 09:55:48;;;;;;;5.35;1.73;;;15.70;99.90;;;;;;5011355;28;20045;-63
2022/05/06 09:58:17;;;;;;;7.80;2.20;;;15.80;99.90;;;;;;5029973;28;20045;-62
2022/05/06 10:00:44;;;;;;;4.85;1.70;;;16.00;99.90;;;;;;5029179;28;20492;-61
2022/05/06 10:03:13;;;;;;;3.92;1.60;;;16.20;99.90;;;;;;5028101;28;20497;-61
2022/05/06 10:05:40;;;;;;;2.50;1.65;;;16.30;99.90;;;;;;5018610;28;20041;-60
2022/05/06 10:08:21;;;;;;;5.95;2.00;;;16.40;99.90;;;;;;5023090;28;20591;-61
2022/05/06 10:11:01;;;;;;;5.50;1.60;;;16.50;99.90;;;;;;5030807;28;20056;-60
2022/05/06 10:13:34;;;;;;;5.35;1.83;;;16.40;99.90;;;;;;5029262;28;20052;-60
2022/05/06 10:16:02;;;;;;;7.97;1.85;;;16.40;99.90;;;;;;5010028;28;20046;-60
2022/05/06 10:18:35;;;;;;;3.17;1.67;;;16.50;99.90;;;;;;5019663;28;20048;-60
2022/05/06 10:21:05;;;;;;;5.93;1.60;;;16.60;99.90;;;;;;5058572;28;20049;-60
2022/05/06 10:23:55;;;;;;;2.08;1.35;;;16.80;99.90;;;;;;5014696;28;20045;-62
2022/05/06 10:26:42;;;;;;;5.18;1.23;;;16.90;99.90;;;;;;5013810;28;20508;-61
2022/05/06 10:34:58;;;;;;;2.35;1.42;;;16.80;99.90;;;;;;5033802;28;20041;-62
2022/05/06 10:37:36;;;;;;;5.95;1.65;;;16.60;99.90;;;;;;5028976;28;20060;-61
2022/05/06 10:40:22;;;;;;;2.67;1.23;;;16.40;99.90;;;;;;5012773;28;20050;-60
2022/05/06 10:42:50;;;;;;;5.50;2.17;;;16.30;99.90;;;;;;5027682;28;20045;-60
2022/05/06 10:45:34;;;;;;;6.40;1.50;;;16.10;99.90;;;;;;5034208;28;20410;-60
2022/05/06 10:48:18;;;;;;;4.97;1.27;;;15.90;99.90;;;;;;5032110;28;20057;-60
2022/05/06 10:50:46;;;;;;;9.45;1.50;;;15.80;99.90;;;;;;5025764;28;20599;-61
2022/05/06 10:53:33;;;;;;;3.03;0.90;;;15.70;99.90;;;;;;5027447;28;20041;-63
2022/05/06 10:56:00;;;;;;;3.25;0.98;;;15.80;99.90;;;;;;5033129;28;20408;-61
2022/05/06 10:58:28;;;;;;;3.30;0.82;;;15.90;99.90;;;;;;5032604;28;20060;-63
2022/05/06 11:01:00;;;;;;;4.53;1.10;;;16.00;99.90;;;;;;5032440;28;20041;-64
2022/05/06 11:03:28;;;;;;;4.90;1.40;;;16.00;99.90;;;;;;5002606;28;20081;-62
2022/05/06 11:05:56;;;;;;;3.15;1.10;;;16.10;99.90;;;;;;5044728;28;20391;-60
2022/05/06 11:08:33;;;;;;;1.77;1.20;;;16.10;99.90;;;;;;5032395;28;20052;-60
2022/05/06 11:11:01;;;;;;;3.80;1.10;;;16.10;99.90;;;;;;5035169;28;20033;-60
2022/05/06 11:13:33;;;;;;;1.92;1.00;;;16.20;99.90;;;;;;5032783;28;20049;-61
2022/05/06 11:16:08;;;;;;;2.13;0.65;;;16.20;99.90;;;;;;5029082;28;20045;-59
2022/05/06 11:18:43;;;;;;;1.50;0.60;;;16.30;99.90;;;;;;5024963;28;20120;-59
2022/05/06 11:21:24;;;;;;;0.80;0.80;;;16.40;99.90;;;;;;5028550;28;20504;-60
2022/05/06 11:23:52;;;;;;;2.38;0.80;;;16.40;99.90;;;;;;5016412;28;20045;-59
2022/05/06 11:26:24;;;;;;;3.17;0.80;;;16.40;99.90;;;;;;5019132;28;20045;-59
2022/05/06 11:29:04;;;;;;;3.17;0.73;;;16.50;99.90;;;;;;5011811;28;20053;-59
2022/05/06 11:31:33;;;;;;;1.23;0.77;;;16.50;99.90;;;;;;5029258;28;20037;-59
2022/05/06 11:34:05;;;;;;;2.15;0.57;;;16.50;99.90;;;;;;5023230;28;20065;-59
2022/05/06 11:36:33;;;;;;;1.55;0.63;;;16.60;99.90;;;;;;5024269;28;20068;-60
2022/05/06 11:39:11;;;;;;;2.50;0.70;;;16.60;99.90;;;;;;5030254;28;20056;-60
2022/05/06 11:41:39;;;;;;;0.88;0.52;;;16.60;99.90;;;;;;5035296;28;20663;-60
2022/05/06 11:44:07;;;;;;;4.88;0.50;;;16.60;99.90;;;;;;5033147;28;20048;-59
2022/05/06 11:49:25;;;;;;;2.00;0.40;;;16.50;99.90;;;;;;5030052;28;20393;-61
2022/05/06 11:51:55;;;;;;;5.55;0.70;;;16.60;99.90;;;;;;5029631;28;20041;-59
2022/05/06 11:54:25;;;;;;;11.38;0.93;;;16.60;99.90;;;;;;5031283;28;20037;-60
2022/05/06 11:56:53;;;;;;;3.00;0.40;;;16.70;99.90;;;;;;5031726;28;20053;-61
2022/05/06 11:59:21;;;;;;;1.50;0.40;;;16.80;99.90;;;;;;5032580;28;20053;-65
2022/05/06 12:01:49;;;;;;;1.08;0.40;;;16.90;99.90;;;;;;5031366;28;20045;-60
2022/05/06 12:04:17;;;;;;;3.45;0.60;;;16.90;99.90;;;;;;5027876;28;20046;-64
2022/05/06 12:06:49;;;;;;;1.70;0.40;;;16.80;99.90;;;;;;5033007;28;20045;-60
2022/05/06 12:09:21;;;;;;;2.83;0.47;;;16.60;99.90;;;;;;5028497;28;20045;-60
2022/05/06 12:12:06;;;;;;;1.05;0.40;;;16.60;99.90;;;;;;5031463;28;20045;-65
2022/05/06 12:14:35;;;;;;;1.65;0.40;;;16.60;99.90;;;;;;5033995;28;20041;-62
2022/05/06 12:17:13;;;;;;;0.30;0.30;;;16.60;99.90;;;;;;5046913;28;20045;-59
2022/05/06 12:19:45;;;;;;;3.17;0.30;;;16.70;99.90;;;;;;5034496;28;20510;-60
2022/05/06 12:22:15;;;;;;;3.35;0.35;;;16.70;99.90;;;;;;5030610;28;20049;-59
2022/05/06 12:24:44;;;;;;;6.25;0.52;;;16.70;99.90;;;;;;5030729;28;20037;-59
2022/05/06 12:27:22;;;;;;;3.95;0.40;;;16.80;99.90;;;;;;5032073;28;20500;-61
2022/05/06 12:29:49;;;;;;;0.20;0.10;;;16.80;99.90;;;;;;5032219;28;20048;-60
2022/05/06 12:32:17;;;;;;;3.97;0.45;;;16.90;99.90;;;;;;5029449;28;20069;-62
2022/05/06 12:34:45;;;;;;;3.85;0.60;;;17.10;99.90;;;;;;5025631;28;20045;-62
2022/05/06 12:37:20;;;;;;;6.78;0.50;;;17.20;99.90;;;;;;5025405;28;20060;-61
2022/05/06 12:39:48;;;;;;;0.45;0.20;;;17.20;99.90;;;;;;5014597;28;20065;-61
2022/05/06 12:42:20;;;;;;;3.22;0.40;;;17.30;99.90;;;;;;5027064;28;20038;-65
2022/05/06 12:45:12;;;;;;;1.50;0.35;;;17.30;99.90;;;;;;5033476;28;20392;-60
2022/05/06 12:50:26;;;;;;;0.43;0.30;;;17.20;99.90;;;;;;5031479;28;20042;-62
2022/05/06 12:52:54;;;;;;;3.03;0.30;;;17.10;99.90;;;;;;5025056;28;20378;-60
2022/05/06 12:55:21;;;;;;;0.70;0.30;;;17.10;99.90;;;;;;5031155;28;20050;-61
2022/05/06 12:57:49;;;;;;;2.25;0.15;;;17.00;99.90;;;;;;5033649;28;20050;-61
2022/05/06 13:00:17;;;;;;;0.20;0.20;;;17.00;99.90;;;;;;5029707;28;20034;-59
2022/05/06 13:02:44;;;;;;;3.40;0.22;;;17.00;99.90;;;;;;5031083;28;20057;-60
2022/05/06 13:05:12;;;;;;;0.10;0.10;;;17.00;99.90;;;;;;5031217;28;20045;-60
2022/05/06 13:07:40;;;;;;;2.28;0.10;;;17.00;99.90;;;;;;5024185;28;20045;-59
2022/05/06 13:10:08;;;;;;;0.20;0.20;;;17.10;99.90;;;;;;5025895;28;20050;-60
2022/05/06 13:12:35;;;;;;;0.52;0.10;;;17.20;99.90;;;;;;5028622;28;20045;-60
2022/05/06 13:15:04;;;;;;;5.82;0.57;;;17.40;99.90;;;;;;5030595;28;20139;-60
2022/05/06 13:17:31;;;;;;;0.93;0.38;;;17.60;99.90;;;;;;5030874;28;20048;-60
2022/05/06 13:19:59;;;;;;;2.17;0.20;;;17.70;99.90;;;;;;5029678;28;20396;-60
2022/05/06 13:22:28;;;;;;;2.95;0.30;;;17.70;99.90;;;;;;5029802;28;20060;-60
2022/05/06 13:24:56;;;;;;;0.52;0.28;;;17.80;99.90;;;;;;5027704;28;20489;-61
2022/05/06 13:27:23;;;;;;;0.60;0.20;;;18.10;99.90;;;;;;5031261;28;20046;-60
2022/05/06 13:29:51;;;;;;;0.50;0.10;;;18.60;99.90;;;;;;5033410;28;20065;-59
2022/05/06 13:32:18;;;;;;;0.20;0.15;;;18.90;99.90;;;;;;5030032;28;20068;-60
2022/05/06 13:34:46;;;;;;;2.28;0.20;;;19.00;99.90;;;;;;5014724;28;20066;-60
2022/05/06 13:37:14;;;;;;;0.85;0.25;;;18.90;99.90;;;;;;5033987;28;20606;-60
2022/05/06 13:39:42;;;;;;;0.85;0.30;;;18.80;99.90;;;;;;5028330;28;20512;-60
2022/05/06 13:42:10;;;;;;;0.75;0.20;;;18.50;99.90;;;;;;5013478;28;20042;-62
2022/05/06 13:44:38;;;;;;;1.65;0.30;;;18.30;99.90;;;;;;5032500;28;20537;-60
2022/05/06 13:47:05;;;;;;;0.88;0.20;;;18.10;99.90;;;;;;5027145;28;20037;-60